Time;durP1;ratioP1;P1;durP2;ratioP2;P2;SDS_P1;SDS_P2;PMS_P1;PMS_P2;Temp;Humidity;BMP_temperature;BMP_pressure;BME280_temperature;BME280_humidity;BME280_pressure;Samples;Min_cycle;Max_cycle;Signal;HPM_P1;HPM_P2
2023/11/12 00:01:13;;;;;;;17.53;14.27;;;;;;;6.27;100.00;100753.53;5023905;28;20136;-66
2023/11/12 00:03:39;;;;;;;21.13;13.77;;;;;;;6.09;100.00;100728.72;5027918;28;20051;-68
2023/11/12 00:06:05;;;;;;;19.37;14.53;;;;;;;6.10;100.00;100735.69;5030292;28;20555;-70
2023/11/12 00:08:31;;;;;;;19.13;14.37;;;;;;;6.21;100.00;100759.38;5028212;28;20183;-68
2023/11/12 00:10:57;;;;;;;21.67;14.83;;;;;;;6.10;100.00;100738.34;5028482;28;20061;-67
2023/11/12 00:13:23;;;;;;;17.93;13.93;;;;;;;6.12;100.00;100736.41;5029518;28;20037;-67
2023/11/12 00:15:49;;;;;;;19.13;14.47;;;;;;;6.25;100.00;100752.00;5023595;28;20439;-70
2023/11/12 00:18:16;;;;;;;20.70;15.50;;;;;;;6.18;100.00;100739.31;5028361;28;20087;-69
2023/11/12 00:20:42;;;;;;;22.50;15.10;;;;;;;6.18;100.00;100743.78;5028032;28;20045;-68
2023/11/12 00:23:08;;;;;;;19.43;15.07;;;;;;;6.04;100.00;100715.06;5023725;28;20492;-71
2023/11/12 00:25:35;;;;;;;21.70;13.90;;;;;;;6.02;100.00;100717.00;5024892;28;20061;-70
2023/11/12 00:28:00;;;;;;;18.33;14.13;;;;;;;6.14;100.00;100715.94;5026814;28;20133;-70
2023/11/12 00:30:26;;;;;;;18.13;13.77;;;;;;;6.18;100.00;100717.34;5026869;28;20483;-70
2023/11/12 00:32:53;;;;;;;16.53;14.03;;;;;;;6.22;100.00;100724.88;5023816;28;20041;-68
2023/11/12 00:35:18;;;;;;;14.90;12.77;;;;;;;6.24;100.00;100726.53;5032005;28;20049;-67
2023/11/12 00:37:46;;;;;;;18.93;13.53;;;;;;;6.12;100.00;100707.31;5035551;28;20130;-67
2023/11/12 00:40:13;;;;;;;16.70;12.43;;;;;;;6.18;100.00;100720.81;5032230;28;20041;-67
2023/11/12 00:42:39;;;;;;;21.07;13.97;;;;;;;5.99;100.00;100690.84;5031178;28;20119;-66
2023/11/12 00:45:05;;;;;;;16.33;12.53;;;;;;;6.03;100.00;100703.66;5026483;28;20041;-68
2023/11/12 00:47:31;;;;;;;18.57;13.17;;;;;;;6.10;100.00;100707.44;5029007;28;20413;-70
2023/11/12 00:49:56;;;;;;;19.80;13.70;;;;;;;6.14;100.00;100702.72;5034213;28;20068;-68
2023/11/12 00:52:22;;;;;;;20.60;14.97;;;;;;;6.08;100.00;100690.88;5029821;28;20558;-65
2023/11/12 00:54:48;;;;;;;21.27;14.83;;;;;;;6.19;100.00;100713.72;5026247;28;20946;-71
2023/11/12 00:57:13;;;;;;;17.50;13.77;;;;;;;6.16;100.00;100703.41;5032790;28;20049;-67
2023/11/12 00:59:39;;;;;;;20.80;14.97;;;;;;;6.09;100.00;100700.50;5030183;28;20045;-65
2023/11/12 01:02:04;;;;;;;18.47;13.83;;;;;;;6.10;100.00;100699.50;5031735;28;20493;-67
2023/11/12 01:04:30;;;;;;;19.93;13.00;;;;;;;6.12;100.00;100694.09;5029838;28;20049;-66
2023/11/12 01:06:56;;;;;;;24.43;12.17;;;;;;;6.22;100.00;100706.34;5029277;28;20037;-66
2023/11/12 01:09:21;;;;;;;16.33;12.30;;;;;;;6.18;100.00;100701.47;5029769;28;20040;-67
2023/11/12 01:11:48;;;;;;;14.30;10.53;;;;;;;6.11;100.00;100689.78;5031095;28;20025;-66
2023/11/12 01:14:13;;;;;;;14.70;12.20;;;;;;;6.27;100.00;100716.50;5032556;28;20128;-67
2023/11/12 01:16:39;;;;;;;13.67;11.10;;;;;;;6.21;100.00;100690.63;5032623;28;20116;-68
2023/11/12 01:19:05;;;;;;;15.37;11.70;;;;;;;6.28;100.00;100712.06;5029726;28;20036;-68
2023/11/12 01:21:30;;;;;;;14.73;11.17;;;;;;;6.25;100.00;100704.41;5023724;28;20049;-66
2023/11/12 01:23:56;;;;;;;16.53;12.47;;;;;;;6.25;100.00;100710.53;5026963;28;20060;-67
2023/11/12 01:26:24;;;;;;;14.90;12.10;;;;;;;6.28;100.00;100712.91;5033469;28;20084;-67
2023/11/12 01:28:49;;;;;;;16.03;11.50;;;;;;;6.31;100.00;100696.75;5034165;28;20409;-68
2023/11/12 01:31:15;;;;;;;14.10;12.13;;;;;;;6.27;100.00;100700.66;5032866;28;20052;-65
2023/11/12 01:33:41;;;;;;;16.30;11.80;;;;;;;6.28;100.00;100699.66;5032959;28;20041;-67
2023/11/12 01:36:07;;;;;;;19.57;12.23;;;;;;;6.22;100.00;100694.94;5034562;28;20044;-69
2023/11/12 01:38:33;;;;;;;19.77;12.60;;;;;;;5.63;100.00;100597.94;5029721;28;20041;-68
2023/11/12 01:41:03;;;;;;;15.23;12.40;;;;;;;6.06;100.00;100676.09;5034311;28;20041;-65
2023/11/12 01:43:30;;;;;;;18.07;12.87;;;;;;;6.26;100.00;100704.25;5029090;28;20385;-65
2023/11/12 01:45:57;;;;;;;17.77;12.00;;;;;;;6.19;100.00;100693.41;5029649;28;20076;-68
2023/11/12 01:48:23;;;;;;;14.87;11.23;;;;;;;6.19;100.00;100690.75;5032800;28;20088;-68
2023/11/12 01:50:50;;;;;;;12.90;10.33;;;;;;;6.00;100.00;100661.63;5031147;28;20037;-67
2023/11/12 01:53:17;;;;;;;12.30;10.83;;;;;;;6.20;100.00;100696.88;5028923;28;20052;-67
2023/11/12 01:55:45;;;;;;;15.43;12.13;;;;;;;6.22;100.00;100685.19;5031705;28;20038;-67
2023/11/12 01:58:12;;;;;;;13.18;10.98;;;;;;;6.18;100.00;100680.31;5029043;28;20037;-66
2023/11/12 02:00:41;;;;;;;21.43;11.37;;;;;;;6.30;100.00;100681.84;5030644;28;20056;-66
2023/11/12 02:03:11;;;;;;;14.40;11.63;;;;;;;6.28;100.00;100686.44;5031685;28;20041;-67
2023/11/12 02:05:37;;;;;;;14.73;11.37;;;;;;;6.17;100.00;100676.84;5027340;28;20091;-67
2023/11/12 02:08:05;;;;;;;14.40;11.07;;;;;;;6.27;100.00;100687.41;5030052;28;20046;-66
2023/11/12 02:10:35;;;;;;;14.10;11.43;;;;;;;6.20;100.00;100673.09;5032499;28;20520;-71
2023/11/12 02:13:06;;;;;;;15.53;10.87;;;;;;;6.14;100.00;100657.78;5029709;28;20041;-70
2023/11/12 02:15:34;;;;;;;17.33;12.60;;;;;;;6.28;100.00;100683.81;5030363;28;20064;-70
2023/11/12 02:18:00;;;;;;;12.53;10.53;;;;;;;6.22;100.00;100660.56;5032264;28;20164;-67
2023/11/12 02:20:29;;;;;;;13.57;11.07;;;;;;;6.34;100.00;100675.31;5028998;28;20041;-66
2023/11/12 02:22:55;;;;;;;15.13;11.07;;;;;;;6.35;100.00;100669.06;5029095;28;20046;-69
2023/11/12 02:25:21;;;;;;;19.47;12.23;;;;;;;6.38;100.00;100671.44;5029835;28;20559;-67
2023/11/12 02:27:48;;;;;;;16.83;12.00;;;;;;;6.26;100.00;100645.25;5031560;28;20053;-70
2023/11/12 02:30:15;;;;;;;14.73;11.40;;;;;;;6.24;100.00;100642.75;5032428;28;20120;-64
2023/11/12 02:32:42;;;;;;;16.93;11.47;;;;;;;6.20;100.00;100638.69;5033025;28;20053;-68
2023/11/12 02:35:07;;;;;;;17.13;12.17;;;;;;;6.35;100.00;100658.47;5033171;28;20041;-69
2023/11/12 02:37:35;;;;;;;16.90;12.20;;;;;;;6.31;100.00;100648.31;5031307;28;20056;-68
2023/11/12 02:40:01;;;;;;;17.13;12.83;;;;;;;6.22;100.00;100637.59;5030365;28;20052;-67
2023/11/12 02:42:32;;;;;;;20.40;13.87;;;;;;;6.18;100.00;100643.28;5029829;28;20131;-66
2023/11/12 02:44:58;;;;;;;17.77;12.40;;;;;;;6.25;100.00;100649.69;5029227;28;20037;-65
2023/11/12 02:47:23;;;;;;;17.13;13.20;;;;;;;6.19;100.00;100642.31;5031966;28;20045;-68
2023/11/12 02:50:08;;;;;;;19.10;11.87;;;;;;;6.27;100.00;100653.03;5011062;28;20030;-68
2023/11/12 02:52:34;;;;;;;19.80;13.73;;;;;;;6.20;100.00;100642.19;5010809;28;20111;-68
2023/11/12 02:55:00;;;;;;;19.43;13.67;;;;;;;6.19;100.00;100637.88;5033478;28;20477;-65
2023/11/12 02:57:26;;;;;;;18.23;12.40;;;;;;;5.92;100.00;100591.91;5031709;28;20048;-67
2023/11/12 02:59:53;;;;;;;19.10;11.93;;;;;;;6.17;100.00;100638.97;5027266;28;20095;-67
2023/11/12 03:02:19;;;;;;;22.57;16.33;;;;;;;5.43;100.00;100532.81;5028066;28;20048;-67
2023/11/12 03:04:46;;;;;;;22.40;14.27;;;;;;;6.13;100.00;100653.44;5032418;28;20607;-66
2023/11/12 03:07:11;;;;;;;25.70;14.47;;;;;;;6.13;100.00;100643.72;5031154;28;20124;-66
2023/11/12 03:09:38;;;;;;;20.03;13.57;;;;;;;6.07;100.00;100635.47;5032374;28;20139;-68
2023/11/12 03:12:04;;;;;;;19.23;12.93;;;;;;;6.15;100.00;100647.06;5030697;28;20033;-67
2023/11/12 03:14:31;;;;;;;23.20;15.90;;;;;;;6.12;100.00;100638.56;5011891;28;20127;-66
2023/11/12 03:16:56;;;;;;;21.13;14.60;;;;;;;5.93;100.00;100615.56;5030789;28;20041;-69
2023/11/12 03:19:23;;;;;;;25.60;15.13;;;;;;;5.99;100.00;100627.38;5012977;28;20055;-67
2023/11/12 03:21:55;;;;;;;26.00;14.80;;;;;;;5.97;100.00;100624.88;5039337;28;20037;-66
2023/11/12 03:24:22;;;;;;;26.70;15.53;;;;;;;5.91;100.00;100617.50;5037963;28;20107;-67
2023/11/12 03:26:52;;;;;;;25.37;14.97;;;;;;;5.84;100.00;100613.72;5019452;28;20041;-66
2023/11/12 03:29:19;;;;;;;22.53;14.10;;;;;;;5.96;100.00;100622.38;5030555;28;20037;-66
2023/11/12 03:31:45;;;;;;;27.33;15.83;;;;;;;5.94;100.00;100613.75;5026349;28;20122;-68
2023/11/12 03:34:11;;;;;;;26.53;15.53;;;;;;;5.97;100.00;100622.25;5031361;28;20148;-67
2023/11/12 03:36:37;;;;;;;26.30;15.47;;;;;;;5.78;100.00;100599.25;5027138;28;20041;-68
2023/11/12 03:39:03;;;;;;;27.37;16.43;;;;;;;5.85;100.00;100600.34;5028241;28;20045;-67
2023/11/12 03:41:29;;;;;;;28.67;18.43;;;;;;;5.91;100.00;100628.06;5030693;28;20086;-67
2023/11/12 03:43:54;;;;;;;27.60;15.63;;;;;;;5.80;100.00;100607.88;5027771;28;20257;-67
2023/11/12 03:46:20;;;;;;;31.77;16.87;;;;;;;5.92;100.00;100615.69;5030725;28;20112;-66
2023/11/12 03:48:46;;;;;;;28.07;15.97;;;;;;;5.71;100.00;100602.53;5030435;28;20052;-67
2023/11/12 03:51:12;;;;;;;25.00;14.90;;;;;;;5.73;100.00;100593.50;5027411;28;20067;-68
2023/11/12 03:53:37;;;;;;;24.03;14.73;;;;;;;5.88;100.00;100613.28;5028589;28;20049;-68
2023/11/12 03:56:03;;;;;;;23.63;14.63;;;;;;;5.78;100.00;100598.38;5029923;28;20037;-65
2023/11/12 03:58:30;;;;;;;25.57;13.87;;;;;;;5.89;100.00;100612.34;5030265;28;20511;-69
2023/11/12 04:00:57;;;;;;;22.93;14.77;;;;;;;5.87;100.00;100611.63;5025378;28;20049;-67
2023/11/12 04:03:24;;;;;;;20.00;13.90;;;;;;;5.86;100.00;100607.31;5024927;28;20037;-70
2023/11/12 04:05:49;;;;;;;20.23;13.53;;;;;;;5.88;100.00;100605.38;5014363;28;20428;-66
2023/11/12 04:08:15;;;;;;;20.80;13.20;;;;;;;5.88;100.00;100605.38;5025640;28;20071;-66
2023/11/12 04:10:41;;;;;;;22.30;13.93;;;;;;;5.74;100.00;100575.84;5031393;28;20061;-67
2023/11/12 04:13:06;;;;;;;18.67;12.53;;;;;;;5.92;100.00;100605.13;5028009;28;20064;-68
2023/11/12 04:15:32;;;;;;;24.23;13.90;;;;;;;5.82;100.00;100582.13;5026687;28;20038;-67
2023/11/12 04:17:58;;;;;;;20.53;13.77;;;;;;;5.82;100.00;100570.72;5026625;28;20037;-67
2023/11/12 04:20:28;;;;;;;14.40;11.17;;;;;;;5.84;100.00;100582.84;5028889;28;20048;-69
2023/11/12 04:22:57;;;;;;;16.27;11.70;;;;;;;5.93;100.00;100591.78;5024888;28;20041;-67
2023/11/12 04:25:23;;;;;;;17.20;11.47;;;;;;;5.80;100.00;100576.16;5025374;28;20575;-66
2023/11/12 04:27:49;;;;;;;15.60;11.23;;;;;;;5.92;100.00;100587.47;5035181;28;20045;-64
2023/11/12 04:30:19;;;;;;;15.70;11.10;;;;;;;5.87;100.00;100581.72;5027692;28;20046;-68
2023/11/12 04:32:44;;;;;;;12.87;9.77;;;;;;;5.93;100.00;100588.28;5028545;28;20056;-66
2023/11/12 04:35:11;;;;;;;13.80;10.00;;;;;;;5.95;100.00;100581.06;5030176;28;20456;-68
2023/11/12 04:37:38;;;;;;;11.97;9.30;;;;;;;5.58;100.00;100534.09;5028151;28;20519;-66
2023/11/12 04:40:06;;;;;;;10.33;8.73;;;;;;;5.86;100.00;100586.16;5027369;28;20041;-64
2023/11/12 04:42:35;;;;;;;11.10;9.13;;;;;;;5.79;100.00;100563.91;5027789;28;20041;-70
2023/11/12 04:45:01;;;;;;;10.57;9.17;;;;;;;5.90;100.00;100587.59;5027883;28;20037;-68
2023/11/12 04:47:26;;;;;;;11.90;8.73;;;;;;;5.89;100.00;100585.06;5027568;28;20091;-66
2023/11/12 04:49:52;;;;;;;11.43;9.13;;;;;;;5.80;100.00;100565.59;5026624;28;20132;-69
2023/11/12 04:52:18;;;;;;;10.13;7.73;;;;;;;5.88;100.00;100584.22;5023589;28;20034;-68
2023/11/12 04:54:50;;;;;;;10.67;8.97;;;;;;;5.88;100.00;100575.47;5029255;28;20041;-69
2023/11/12 04:57:17;;;;;;;12.13;8.73;;;;;;;5.94;100.00;100576.75;5027678;28;20043;-69
2023/11/12 04:59:42;;;;;;;9.50;7.87;;;;;;;5.93;100.00;100577.72;5027427;28;20041;-67
2023/11/12 05:02:10;;;;;;;9.23;7.63;;;;;;;5.92;100.00;100583.97;5029537;28;20132;-67
2023/11/12 05:04:36;;;;;;;10.50;7.55;;;;;;;5.85;100.00;100559.88;5027361;28;20041;-67
2023/11/12 05:07:02;;;;;;;8.33;6.50;;;;;;;5.77;100.00;100549.13;5016401;28;20568;-65
2023/11/12 05:09:28;;;;;;;7.97;6.47;;;;;;;5.93;100.00;100575.06;5027484;28;20042;-67
2023/11/12 05:11:54;;;;;;;9.23;7.00;;;;;;;5.92;100.00;100576.06;5026942;28;20408;-69
2023/11/12 05:14:19;;;;;;;8.43;7.53;;;;;;;5.80;100.00;100559.47;5028704;28;20511;-68
2023/11/12 05:16:46;;;;;;;9.73;7.30;;;;;;;5.85;100.00;100566.00;5028467;28;20033;-67
2023/11/12 05:19:13;;;;;;;6.97;6.27;;;;;;;5.70;100.00;100548.03;5028175;28;20042;-68
2023/11/12 05:21:44;;;;;;;10.20;6.43;;;;;;;5.77;100.00;100560.53;5030944;28;20048;-67
2023/11/12 05:24:12;;;;;;;7.80;6.87;;;;;;;5.85;100.00;100576.56;5034036;28;20132;-65
2023/11/12 05:26:38;;;;;;;10.60;7.03;;;;;;;5.65;100.00;100547.59;5033082;28;20171;-69
2023/11/12 05:29:04;;;;;;;9.83;7.93;;;;;;;5.70;100.00;100546.22;5029942;28;20532;-69
2023/11/12 05:31:32;;;;;;;10.83;8.20;;;;;;;5.90;100.00;100570.91;5030239;28;20049;-68
2023/11/12 05:34:02;;;;;;;12.52;8.10;;;;;;;5.83;100.00;100560.03;5033396;28;20037;-69
2023/11/12 05:36:28;;;;;;;12.77;8.57;;;;;;;5.89;100.00;100558.63;5030456;28;20044;-69
2023/11/12 05:38:54;;;;;;;13.57;9.37;;;;;;;5.95;100.00;100568.69;5028194;28;20051;-69
2023/11/12 05:41:21;;;;;;;12.63;9.23;;;;;;;5.82;100.00;100542.50;5029526;28;20044;-68
2023/11/12 05:43:46;;;;;;;15.40;11.73;;;;;;;5.93;100.00;100561.88;5029728;28;20052;-68
2023/11/12 05:46:13;;;;;;;15.17;10.47;;;;;;;5.86;100.00;100550.97;5033546;28;20037;-69
2023/11/12 05:48:39;;;;;;;13.83;10.10;;;;;;;5.11;100.00;100432.66;5033317;28;20065;-69
2023/11/12 05:51:05;;;;;;;15.33;11.07;;;;;;;5.87;100.00;100555.28;5031933;28;20075;-70
2023/11/12 05:53:32;;;;;;;15.60;11.17;;;;;;;5.94;100.00;100566.16;5033254;28;20033;-67
2023/11/12 05:55:58;;;;;;;18.93;10.40;;;;;;;5.92;100.00;100549.63;5032039;28;20136;-67
2023/11/12 05:58:24;;;;;;;17.23;11.03;;;;;;;5.92;100.00;100562.84;5028092;28;20124;-67
2023/11/12 06:00:54;;;;;;;16.33;12.23;;;;;;;5.99;100.00;100577.16;5030228;28;20500;-68
2023/11/12 06:03:21;;;;;;;19.03;11.30;;;;;;;5.96;100.00;100564.22;5032176;28;20412;-68
2023/11/12 06:05:46;;;;;;;19.47;12.10;;;;;;;6.01;100.00;100562.00;5028136;28;20095;-65
2023/11/12 06:08:12;;;;;;;21.57;11.37;;;;;;;6.03;100.00;100571.47;5031716;28;20045;-68
2023/11/12 06:10:41;;;;;;;22.13;14.23;;;;;;;5.88;100.00;100556.97;5033881;28;20037;-67
2023/11/12 06:13:08;;;;;;;;;;;;;;;5.98;100.00;100559.63;5027781;28;20041;-66
2023/11/12 06:15:34;;;;;;;22.00;12.23;;;;;;;5.88;100.00;100551.69;5027012;28;20006;-66
2023/11/12 06:18:00;;;;;;;24.63;14.67;;;;;;;5.69;100.00;100536.63;5031735;28;20076;-66
2023/11/12 06:20:27;;;;;;;20.73;13.37;;;;;;;5.82;100.00;100550.41;5031969;28;20044;-69
2023/11/12 06:22:53;;;;;;;19.60;11.90;;;;;;;5.86;100.00;100559.75;5030537;28;20408;-70
2023/11/12 06:25:19;;;;;;;23.00;14.27;;;;;;;5.89;100.00;100554.22;5032042;28;20495;-67
2023/11/12 06:27:47;;;;;;;21.80;14.57;;;;;;;5.82;100.00;100555.72;5032401;28;20469;-69
2023/11/12 06:30:12;;;;;;;25.77;14.53;;;;;;;5.77;100.00;100555.25;5029419;28;20084;-68
2023/11/12 06:32:38;;;;;;;20.80;13.33;;;;;;;5.82;100.00;100566.28;5029048;28;20505;-68
2023/11/12 06:35:04;;;;;;;24.37;15.50;;;;;;;5.58;100.00;100527.00;5030732;28;20405;-68
2023/11/12 06:37:30;;;;;;;24.73;14.27;;;;;;;5.76;100.00;100558.03;5011233;28;20459;-68
2023/11/12 06:39:56;;;;;;;25.27;14.93;;;;;;;5.72;100.00;100552.19;5027588;28;20153;-67
2023/11/12 06:42:23;;;;;;;24.10;14.47;;;;;;;5.75;100.00;100546.63;5027571;28;20053;-69
2023/11/12 06:44:49;;;;;;;24.27;13.60;;;;;;;5.69;100.00;100523.41;5026228;28;20037;-68
2023/11/12 06:47:15;;;;;;;25.07;14.33;;;;;;;5.59;100.00;100498.78;5031277;28;20041;-71
2023/11/12 06:49:40;;;;;;;25.17;15.43;;;;;;;5.73;100.00;100527.44;5027432;28;20477;-70
2023/11/12 06:52:06;;;;;;;24.57;15.27;;;;;;;5.90;100.00;100555.88;5031318;28;20558;-68
2023/11/12 06:54:32;;;;;;;25.47;15.47;;;;;;;5.88;100.00;100549.88;5028796;28;20037;-73
2023/11/12 06:56:59;;;;;;;24.47;15.23;;;;;;;5.92;100.00;100552.25;5028395;28;20397;-67
2023/11/12 06:59:25;;;;;;;25.30;14.67;;;;;;;5.87;100.00;100556.13;5030069;28;20037;-67
2023/11/12 07:01:51;;;;;;;22.93;14.53;;;;;;;5.87;100.00;100544.72;5025277;28;20044;-68
2023/11/12 07:04:17;;;;;;;23.23;14.00;;;;;;;5.88;100.00;100544.59;5028389;28;20049;-69
2023/11/12 07:06:43;;;;;;;28.17;18.00;;;;;;;5.92;100.00;100549.63;5026250;28;20099;-69
2023/11/12 07:09:10;;;;;;;18.50;12.37;;;;;;;5.78;100.00;100530.53;5028321;28;20056;-67
2023/11/12 07:11:36;;;;;;;25.73;14.97;;;;;;;5.92;100.00;100545.16;5028323;28;20520;-65
2023/11/12 07:14:02;;;;;;;25.00;14.80;;;;;;;5.84;100.00;100529.13;5027782;28;20075;-67
2023/11/12 07:16:28;;;;;;;26.57;14.27;;;;;;;5.89;100.00;100538.34;5028929;28;20037;-67
2023/11/12 07:18:55;;;;;;;20.27;14.23;;;;;;;5.94;100.00;100539.75;5030522;28;20041;-66
2023/11/12 07:21:28;;;;;;;24.17;14.27;;;;;;;6.03;100.00;100550.31;5026817;28;20116;-72
2023/11/12 07:23:54;;;;;;;26.33;15.97;;;;;;;6.01;100.00;100543.50;5031163;28;20034;-73
2023/11/12 07:26:21;;;;;;;26.27;14.83;;;;;;;5.97;100.00;100540.28;5030506;28;20053;-68
2023/11/12 07:28:46;;;;;;;22.10;14.00;;;;;;;5.45;100.00;100443.69;5028852;28;20068;-75
2023/11/12 07:31:13;;;;;;;28.37;14.70;;;;;;;5.93;100.00;100522.22;5028858;28;20142;-72
2023/11/12 07:33:38;;;;;;;23.90;14.93;;;;;;;6.10;100.00;100540.03;5029691;28;20052;-67
2023/11/12 07:36:07;;;;;;;25.77;14.13;;;;;;;6.13;100.00;100545.03;5031066;28;20049;-69
2023/11/12 07:38:33;;;;;;;21.77;14.23;;;;;;;6.19;100.00;100534.75;5027243;28;20442;-69
2023/11/12 07:40:58;;;;;;;28.70;15.63;;;;;;;6.09;100.00;100518.06;5029459;28;20139;-67
2023/11/12 07:43:25;;;;;;;30.43;15.73;;;;;;;6.23;100.00;100535.28;5024356;28;20038;-67
2023/11/12 07:45:50;;;;;;;20.93;13.83;;;;;;;6.06;100.00;100506.91;5026795;28;20044;-70
2023/11/12 07:48:17;;;;;;;28.47;15.97;;;;;;;6.20;100.00;100535.56;5030493;28;20037;-70
2023/11/12 07:50:43;;;;;;;21.53;13.43;;;;;;;6.24;100.00;100531.66;5029677;28;20056;-70
2023/11/12 07:53:08;;;;;;;23.60;14.47;;;;;;;6.14;100.00;100517.63;5030961;28;20049;-71
2023/11/12 07:55:34;;;;;;;22.67;14.80;;;;;;;6.20;100.00;100517.06;5027521;28;20091;-70
2023/11/12 07:57:59;;;;;;;23.40;14.53;;;;;;;6.18;100.00;100517.22;5029061;28;20037;-73
2023/11/12 08:00:25;;;;;;;23.43;15.67;;;;;;;6.30;100.00;100528.47;5027587;28;20124;-70
2023/11/12 08:02:51;;;;;;;24.13;13.30;;;;;;;6.25;100.00;100519.28;5026448;28;20496;-72
2023/11/12 08:05:18;;;;;;;21.70;13.23;;;;;;;6.30;100.00;100531.09;5009507;28;20038;-72
2023/11/12 08:07:46;;;;;;;18.77;13.10;;;;;;;6.25;100.00;100512.19;5026253;28;20037;-72
2023/11/12 08:10:12;;;;;;;24.73;14.00;;;;;;;6.35;100.00;100533.31;5027682;28;20088;-68
2023/11/12 08:12:38;;;;;;;18.87;13.33;;;;;;;6.26;100.00;100524.44;5029772;28;20045;-70
2023/11/12 08:15:06;;;;;;;20.00;12.53;;;;;;;6.21;100.00;100500.22;5031204;28;20354;-69
2023/11/12 08:17:32;;;;;;;19.63;12.53;;;;;;;6.34;100.00;100515.78;5025028;28;20045;-69
2023/11/12 08:19:58;;;;;;;21.73;14.23;;;;;;;6.31;100.00;100493.09;5026073;28;20037;-71
2023/11/12 08:22:23;;;;;;;23.23;12.13;;;;;;;6.35;100.00;100497.13;5023704;28;20030;-67
2023/11/12 08:24:53;;;;;;;21.17;13.07;;;;;;;6.52;100.00;100520.22;5024305;28;20057;-70
2023/11/12 08:27:19;;;;;;;19.33;12.47;;;;;;;6.34;100.00;100489.34;5028413;28;20081;-68
2023/11/12 08:29:45;;;;;;;16.47;11.77;;;;;;;6.46;100.00;100504.91;5024216;28;20394;-71
2023/11/12 08:32:10;;;;;;;18.83;12.70;;;;;;;6.41;100.00;100485.16;5027783;28;20049;-69
2023/11/12 08:34:36;;;;;;;21.53;13.17;;;;;;;6.34;100.00;100474.28;5028968;28;20037;-74
2023/11/12 08:37:03;;;;;;;17.10;12.40;;;;;;;6.50;100.00;100511.59;5030780;28;20100;-69
2023/11/12 08:39:28;;;;;;;18.40;11.97;;;;;;;6.34;100.00;100478.75;5032747;28;20049;-68
2023/11/12 08:41:54;;;;;;;17.37;11.33;;;;;;;6.49;100.00;100507.28;5029804;28;20102;-69
2023/11/12 08:44:20;;;;;;;15.50;10.37;;;;;;;6.56;100.00;100502.25;5031755;28;20041;-76
2023/11/12 08:46:45;;;;;;;20.50;13.83;;;;;;;6.59;100.00;100509.06;5033536;28;20068;-71
2023/11/12 08:49:12;;;;;;;20.30;12.83;;;;;;;6.58;100.00;100502.09;5027404;28;20045;-72
2023/11/12 08:51:37;;;;;;;21.63;12.23;;;;;;;6.56;100.00;100514.63;5028950;28;20041;-71
2023/11/12 08:54:04;;;;;;;18.73;12.27;;;;;;;6.51;100.00;100507.13;5027652;28;20140;-69
2023/11/12 08:56:31;;;;;;;18.57;11.37;;;;;;;6.47;100.00;100495.19;5034355;28;20506;-69
2023/11/12 08:58:57;;;;;;;17.63;11.20;;;;;;;6.29;100.00;100462.47;5035180;28;20037;-68
2023/11/12 09:01:23;;;;;;;20.53;13.23;;;;;;;6.52;100.00;100507.00;5035136;28;20048;-69
2023/11/12 09:03:48;;;;;;;22.27;12.70;;;;;;;6.55;100.00;100497.09;5033995;28;20041;-69
2023/11/12 09:06:14;;;;;;;22.20;13.03;;;;;;;6.52;100.00;100487.63;5034155;28;20038;-68
2023/11/12 09:08:40;;;;;;;16.23;11.97;;;;;;;6.60;100.00;100500.16;5037574;28;20526;-67
2023/11/12 09:11:05;;;;;;;16.77;11.30;;;;;;;6.61;100.00;100485.94;5031864;28;20037;-68
2023/11/12 09:13:31;;;;;;;14.90;10.53;;;;;;;6.68;100.00;100487.88;5034378;28;20033;-70
2023/11/12 09:15:58;;;;;;;15.17;10.40;;;;;;;6.58;100.00;100475.63;5035365;28;20132;-68
2023/11/12 09:18:24;;;;;;;17.60;10.70;;;;;;;6.71;100.00;100498.19;5034455;28;20071;-66
2023/11/12 09:20:52;;;;;;;15.37;10.73;;;;;;;6.72;100.00;100486.63;5033713;28;20049;-69
2023/11/12 09:23:18;;;;;;;22.17;12.57;;;;;;;6.79;100.00;100489.50;5034800;28;20044;-69
2023/11/12 09:25:45;;;;;;;15.40;9.60;;;;;;;6.68;100.00;100461.41;5034059;28;20057;-67
2023/11/12 09:28:11;;;;;;;13.50;9.00;;;;;;;6.64;100.00;100469.75;5037618;28;20404;-69
2023/11/12 09:30:37;;;;;;;11.90;9.30;;;;;;;6.56;100.00;100467.00;5030908;28;20120;-69
2023/11/12 09:33:06;;;;;;;13.67;8.57;;;;;;;6.67;100.00;100480.09;5035034;28;20096;-66
2023/11/12 09:35:31;;;;;;;16.52;11.75;;;;;;;6.53;100.00;100468.97;5033905;28;20084;-67
2023/11/12 09:37:57;;;;;;;11.50;9.43;;;;;;;6.54;100.00;100477.75;5034433;28;20087;-67
2023/11/12 09:40:23;;;;;;;16.53;9.33;;;;;;;6.53;100.00;100481.38;5033539;28;20049;-69
2023/11/12 09:42:53;;;;;;;14.27;8.80;;;;;;;6.53;100.00;100484.84;5034073;28;20037;-71
2023/11/12 09:45:22;;;;;;;12.57;8.73;;;;;;;6.43;100.00;100462.88;5033255;28;20107;-72
2023/11/12 09:47:55;;;;;;;;;;;;;;;6.56;100.00;100477.59;5032664;28;20037;-71
2023/11/12 09:50:22;;;;;;;13.57;8.47;;;;;;;6.50;100.00;100477.19;5025467;28;19921;-71
2023/11/12 09:52:50;;;;;;;10.30;7.77;;;;;;;6.29;100.00;100439.50;5027162;28;20354;-70
2023/11/12 09:55:17;;;;;;;11.00;7.90;;;;;;;6.45;100.00;100471.50;5033082;28;20053;-69
2023/11/12 09:57:44;;;;;;;11.77;8.57;;;;;;;6.41;100.00;100470.13;5034406;28;20279;-71
2023/11/12 10:00:12;;;;;;;12.80;8.07;;;;;;;6.35;100.00;100452.16;5034310;28;20069;-78
2023/11/12 10:02:39;;;;;;;;;;;;;;;6.50;100.00;100460.50;5016832;28;20037;-69
2023/11/12 10:05:10;;;;;;;12.03;8.30;;;;;;;6.46;100.00;100467.06;5034189;28;19917;-67
2023/11/12 10:07:37;;;;;;;11.97;8.10;;;;;;;6.31;100.00;100453.44;5032198;28;20507;-72
2023/11/12 10:10:34;;;;;;;11.27;8.17;;;;;;;6.28;100.00;100453.72;5034728;28;20511;-73
2023/11/12 10:13:11;;;;;;;15.40;7.97;;;;;;;6.12;100.00;100437.63;5017458;28;20120;-71
2023/11/12 10:15:37;;;;;;;8.37;7.33;;;;;;;5.76;100.00;100395.03;5034308;28;20041;-69
2023/11/12 10:18:03;;;;;;;11.50;8.10;;;;;;;6.15;100.00;100456.69;5034409;28;20130;-69
2023/11/12 10:20:31;;;;;;;11.13;7.70;;;;;;;6.16;100.00;100449.56;5033627;28;20033;-66
2023/11/12 10:22:57;;;;;;;12.20;8.43;;;;;;;6.00;100.00;100428.16;5016958;28;20488;-70
2023/11/12 10:25:42;;;;;;;11.67;8.77;;;;;;;6.00;100.00;100426.34;5032955;28;20084;-70
2023/11/12 10:28:12;;;;;;;12.77;8.30;;;;;;;6.11;100.00;100441.25;5038170;28;20076;-67
2023/11/12 10:30:42;;;;;;;18.90;8.63;;;;;;;6.16;100.00;100460.16;5037450;28;20041;-66
2023/11/12 10:33:28;;;;;;;14.97;8.90;;;;;;;6.04;100.00;100424.25;5035258;28;20095;-68
2023/11/12 10:35:57;;;;;;;12.63;8.80;;;;;;;5.92;100.00;100420.94;5039159;28;20049;-67
2023/11/12 10:38:23;;;;;;;10.82;8.52;;;;;;;6.02;100.00;100442.06;5048697;28;20622;-67
2023/11/12 10:41:06;;;;;;;10.80;8.43;;;;;;;5.98;100.00;100424.81;5042292;28;20060;-65
2023/11/12 10:43:52;;;;;;;13.40;8.20;;;;;;;6.04;100.00;100429.53;5031397;28;20075;-67
2023/11/12 10:46:17;;;;;;;12.13;8.03;;;;;;;5.92;100.00;100397.16;5047064;28;20037;-69
2023/11/12 10:48:46;;;;;;;12.57;8.77;;;;;;;6.05;100.00;100404.78;5043094;28;20704;-69
2023/11/12 10:51:12;;;;;;;11.77;7.55;;;;;;;5.83;100.00;100375.03;5035645;28;20041;-69
2023/11/12 10:53:38;;;;;;;13.63;8.83;;;;;;;5.97;100.00;100402.84;5034111;28;20037;-70
2023/11/12 10:56:05;;;;;;;13.37;9.33;;;;;;;6.03;100.00;100396.16;5034470;28;20033;-68
2023/11/12 10:58:32;;;;;;;12.80;8.50;;;;;;;6.01;100.00;100408.69;5021699;28;20200;-68
2023/11/12 11:01:00;;;;;;;12.60;8.27;;;;;;;5.92;100.00;100409.53;5027356;28;20040;-70
2023/11/12 11:03:27;;;;;;;16.17;10.02;;;;;;;5.85;100.00;100385.47;5032932;28;20069;-68
2023/11/12 11:05:55;;;;;;;11.53;8.90;;;;;;;5.79;100.00;100371.00;5011769;28;20440;-68
2023/11/12 11:08:21;;;;;;;20.98;11.52;;;;;;;5.79;100.00;100381.56;5012536;28;20049;-66
2023/11/12 11:10:47;;;;;;;15.97;11.87;;;;;;;5.85;100.00;100378.34;5011943;28;20172;-65